Terminal Aerodrome Forecast
Issued by NWS

Home | Current Version | Previous Version | Text Only | Print | Product List | Glossary On
Versions: 1 2 3 4 5 6 7 8 9 10 11 12 13 14 15 16 17 18 19 20 21 22 23
000
FTUS43 KDDC 282320
TAFHYS
TAF
KHYS 282320Z 2900/2924 25007KT P6SM SCT080
     FM290200 14012KT P6SM SCT200
     FM290400 15014KT P6SM VCTS BKN090CB WS020/19050KT
     FM291000 15014KT P6SM BKN150 WS020/19050KT
     FM291300 35009KT P6SM SCT140=

USA.gov is the U.S. government's official web portal to all federal, state and local government web resources and services.